sensor_id;sensor_type;location;lat;lon;timestamp;P1;durP1;ratioP1;P2;durP2;ratioP2
19733;SDS011;10018;51.230;7.860;2023-03-15T00:00:54;19.13;;;5.00;;
19733;SDS011;10018;51.230;7.860;2023-03-15T00:03:20;10.57;;;3.20;;
19733;SDS011;10018;51.230;7.860;2023-03-15T00:05:50;19.17;;;8.10;;
19733;SDS011;10018;51.230;7.860;2023-03-15T00:08:18;17.27;;;7.00;;
19733;SDS011;10018;51.230;7.860;2023-03-15T00:10:46;25.43;;;11.13;;
19733;SDS011;10018;51.230;7.860;2023-03-15T00:13:12;22.00;;;8.60;;
19733;SDS011;10018;51.230;7.860;2023-03-15T00:15:46;10.77;;;4.93;;
19733;SDS011;10018;51.230;7.860;2023-03-15T00:18:16;16.90;;;6.00;;
19733;SDS011;10018;51.230;7.860;2023-03-15T00:20:43;16.60;;;4.97;;
19733;SDS011;10018;51.230;7.860;2023-03-15T00:23:09;12.17;;;4.33;;
19733;SDS011;10018;51.230;7.860;2023-03-15T00:25:35;32.37;;;12.47;;
19733;SDS011;10018;51.230;7.860;2023-03-15T00:28:03;20.23;;;6.30;;
19733;SDS011;10018;51.230;7.860;2023-03-15T00:30:29;14.87;;;3.23;;
19733;SDS011;10018;51.230;7.860;2023-03-15T00:32:55;18.83;;;3.70;;
19733;SDS011;10018;51.230;7.860;2023-03-15T00:35:20;11.90;;;2.37;;
19733;SDS011;10018;51.230;7.860;2023-03-15T00:37:52;10.00;;;2.10;;
19733;SDS011;10018;51.230;7.860;2023-03-15T00:40:19;8.07;;;1.70;;
19733;SDS011;10018;51.230;7.860;2023-03-15T00:42:44;11.70;;;2.40;;
19733;SDS011;10018;51.230;7.860;2023-03-15T00:45:14;14.03;;;1.80;;
19733;SDS011;10018;51.230;7.860;2023-03-15T00:47:41;12.20;;;2.50;;
19733;SDS011;10018;51.230;7.860;2023-03-15T00:50:07;12.20;;;2.10;;
19733;SDS011;10018;51.230;7.860;2023-03-15T00:52:34;12.07;;;2.33;;
19733;SDS011;10018;51.230;7.860;2023-03-15T00:55:02;12.63;;;2.70;;
19733;SDS011;10018;51.230;7.860;2023-03-15T00:57:28;16.53;;;2.50;;
19733;SDS011;10018;51.230;7.860;2023-03-15T00:59:56;9.50;;;2.50;;
19733;SDS011;10018;51.230;7.860;2023-03-15T01:02:22;13.00;;;2.60;;
19733;SDS011;10018;51.230;7.860;2023-03-15T01:04:49;10.83;;;2.90;;
19733;SDS011;10018;51.230;7.860;2023-03-15T01:07:15;11.47;;;3.07;;
19733;SDS011;10018;51.230;7.860;2023-03-15T01:09:41;15.63;;;2.67;;
19733;SDS011;10018;51.230;7.860;2023-03-15T01:12:08;10.97;;;3.53;;
19733;SDS011;10018;51.230;7.860;2023-03-15T01:14:34;13.67;;;4.20;;
19733;SDS011;10018;51.230;7.860;2023-03-15T01:17:01;13.87;;;4.20;;
19733;SDS011;10018;51.230;7.860;2023-03-15T01:19:27;16.40;;;4.27;;
19733;SDS011;10018;51.230;7.860;2023-03-15T01:21:53;12.33;;;5.43;;
19733;SDS011;10018;51.230;7.860;2023-03-15T01:24:18;16.90;;;5.53;;
19733;SDS011;10018;51.230;7.860;2023-03-15T01:26:44;15.77;;;5.53;;
19733;SDS011;10018;51.230;7.860;2023-03-15T01:29:10;19.20;;;5.63;;
19733;SDS011;10018;51.230;7.860;2023-03-15T01:31:37;13.97;;;6.07;;
19733;SDS011;10018;51.230;7.860;2023-03-15T01:34:03;20.77;;;6.93;;
19733;SDS011;10018;51.230;7.860;2023-03-15T01:36:32;22.10;;;7.23;;
19733;SDS011;10018;51.230;7.860;2023-03-15T01:38:58;21.43;;;6.87;;
19733;SDS011;10018;51.230;7.860;2023-03-15T01:41:26;19.23;;;7.23;;
19733;SDS011;10018;51.230;7.860;2023-03-15T01:43:52;20.33;;;7.50;;
19733;SDS011;10018;51.230;7.860;2023-03-15T01:54:31;18.57;;;7.90;;
19733;SDS011;10018;51.230;7.860;2023-03-15T01:57:08;21.37;;;8.97;;
19733;SDS011;10018;51.230;7.860;2023-03-15T02:02:44;20.17;;;8.40;;
19733;SDS011;10018;51.230;7.860;2023-03-15T02:05:19;19.10;;;8.27;;
19733;SDS011;10018;51.230;7.860;2023-03-15T02:07:47;19.07;;;8.37;;
19733;SDS011;10018;51.230;7.860;2023-03-15T02:10:30;12.13;;;6.80;;
19733;SDS011;10018;51.230;7.860;2023-03-15T02:12:59;11.53;;;6.70;;
19733;SDS011;10018;51.230;7.860;2023-03-15T02:15:26;13.67;;;6.87;;
19733;SDS011;10018;51.230;7.860;2023-03-15T02:17:52;11.27;;;6.90;;
19733;SDS011;10018;51.230;7.860;2023-03-15T02:23:02;13.93;;;7.20;;
19733;SDS011;10018;51.230;7.860;2023-03-15T02:25:49;13.13;;;6.70;;
19733;SDS011;10018;51.230;7.860;2023-03-15T02:28:17;11.67;;;6.40;;
19733;SDS011;10018;51.230;7.860;2023-03-15T02:30:43;16.23;;;7.10;;
19733;SDS011;10018;51.230;7.860;2023-03-15T02:33:11;12.00;;;6.40;;
19733;SDS011;10018;51.230;7.860;2023-03-15T02:35:49;11.43;;;6.43;;
19733;SDS011;10018;51.230;7.860;2023-03-15T02:38:15;11.67;;;6.77;;
19733;SDS011;10018;51.230;7.860;2023-03-15T02:40:41;12.57;;;6.97;;
19733;SDS011;10018;51.230;7.860;2023-03-15T02:43:12;12.37;;;6.40;;
19733;SDS011;10018;51.230;7.860;2023-03-15T02:45:48;13.43;;;6.60;;
19733;SDS011;10018;51.230;7.860;2023-03-15T02:48:14;9.93;;;6.33;;
19733;SDS011;10018;51.230;7.860;2023-03-15T02:50:41;10.63;;;6.20;;
19733;SDS011;10018;51.230;7.860;2023-03-15T02:53:07;13.67;;;6.23;;
19733;SDS011;10018;51.230;7.860;2023-03-15T02:55:36;10.57;;;5.90;;
19733;SDS011;10018;51.230;7.860;2023-03-15T02:58:02;11.83;;;6.37;;
19733;SDS011;10018;51.230;7.860;2023-03-15T03:00:27;11.50;;;5.97;;
19733;SDS011;10018;51.230;7.860;2023-03-15T03:02:53;11.17;;;5.83;;
19733;SDS011;10018;51.230;7.860;2023-03-15T03:05:19;10.13;;;5.60;;
19733;SDS011;10018;51.230;7.860;2023-03-15T03:07:45;9.57;;;5.47;;
19733;SDS011;10018;51.230;7.860;2023-03-15T03:10:12;10.03;;;6.20;;
19733;SDS011;10018;51.230;7.860;2023-03-15T03:12:40;9.03;;;5.47;;
19733;SDS011;10018;51.230;7.860;2023-03-15T03:15:06;10.23;;;6.50;;
19733;SDS011;10018;51.230;7.860;2023-03-15T03:17:33;10.77;;;6.40;;
19733;SDS011;10018;51.230;7.860;2023-03-15T03:20:03;11.50;;;6.50;;
19733;SDS011;10018;51.230;7.860;2023-03-15T03:22:36;10.33;;;5.83;;
19733;SDS011;10018;51.230;7.860;2023-03-15T03:25:02;12.43;;;5.90;;
19733;SDS011;10018;51.230;7.860;2023-03-15T03:27:30;10.10;;;5.93;;
19733;SDS011;10018;51.230;7.860;2023-03-15T03:29:55;9.23;;;5.80;;
19733;SDS011;10018;51.230;7.860;2023-03-15T03:32:22;10.60;;;5.80;;
19733;SDS011;10018;51.230;7.860;2023-03-15T03:34:48;11.07;;;5.87;;
19733;SDS011;10018;51.230;7.860;2023-03-15T03:37:18;9.43;;;5.70;;
19733;SDS011;10018;51.230;7.860;2023-03-15T03:39:44;11.20;;;6.20;;
19733;SDS011;10018;51.230;7.860;2023-03-15T03:42:10;9.47;;;5.90;;
19733;SDS011;10018;51.230;7.860;2023-03-15T03:44:36;10.47;;;5.93;;
19733;SDS011;10018;51.230;7.860;2023-03-15T03:47:02;9.27;;;5.90;;
19733;SDS011;10018;51.230;7.860;2023-03-15T03:49:30;8.60;;;5.90;;
19733;SDS011;10018;51.230;7.860;2023-03-15T03:51:55;10.33;;;6.20;;
19733;SDS011;10018;51.230;7.860;2023-03-15T03:54:26;12.53;;;7.50;;
19733;SDS011;10018;51.230;7.860;2023-03-15T03:56:52;11.30;;;6.97;;
19733;SDS011;10018;51.230;7.860;2023-03-15T03:59:18;10.80;;;6.63;;
19733;SDS011;10018;51.230;7.860;2023-03-15T04:01:43;9.80;;;6.47;;
19733;SDS011;10018;51.230;7.860;2023-03-15T04:04:09;17.23;;;8.60;;
19733;SDS011;10018;51.230;7.860;2023-03-15T04:06:38;13.67;;;7.60;;
19733;SDS011;10018;51.230;7.860;2023-03-15T04:09:13;11.37;;;7.07;;
19733;SDS011;10018;51.230;7.860;2023-03-15T04:11:40;14.63;;;7.57;;
19733;SDS011;10018;51.230;7.860;2023-03-15T04:14:10;13.30;;;8.03;;
19733;SDS011;10018;51.230;7.860;2023-03-15T04:16:41;15.47;;;8.53;;
19733;SDS011;10018;51.230;7.860;2023-03-15T04:19:07;12.57;;;8.60;;
19733;SDS011;10018;51.230;7.860;2023-03-15T04:21:33;15.30;;;9.00;;
19733;SDS011;10018;51.230;7.860;2023-03-15T04:23:59;15.87;;;9.00;;
19733;SDS011;10018;51.230;7.860;2023-03-15T04:26:25;12.20;;;8.50;;
19733;SDS011;10018;51.230;7.860;2023-03-15T04:28:53;13.63;;;9.30;;
19733;SDS011;10018;51.230;7.860;2023-03-15T04:31:19;14.20;;;8.93;;
19733;SDS011;10018;51.230;7.860;2023-03-15T04:33:45;18.20;;;9.87;;
19733;SDS011;10018;51.230;7.860;2023-03-15T04:36:11;14.47;;;9.40;;
19733;SDS011;10018;51.230;7.860;2023-03-15T04:38:42;13.00;;;8.70;;
19733;SDS011;10018;51.230;7.860;2023-03-15T04:41:11;15.67;;;10.10;;
19733;SDS011;10018;51.230;7.860;2023-03-15T04:43:40;19.23;;;9.90;;
19733;SDS011;10018;51.230;7.860;2023-03-15T04:46:06;15.90;;;9.67;;
19733;SDS011;10018;51.230;7.860;2023-03-15T04:48:32;17.10;;;10.97;;
19733;SDS011;10018;51.230;7.860;2023-03-15T04:50:58;16.63;;;10.37;;
19733;SDS011;10018;51.230;7.860;2023-03-15T04:53:24;17.17;;;10.87;;
19733;SDS011;10018;51.230;7.860;2023-03-15T04:55:50;17.47;;;11.23;;
19733;SDS011;10018;51.230;7.860;2023-03-15T04:58:16;15.53;;;10.10;;
19733;SDS011;10018;51.230;7.860;2023-03-15T05:00:44;18.40;;;11.27;;
19733;SDS011;10018;51.230;7.860;2023-03-15T05:03:09;17.67;;;10.93;;
19733;SDS011;10018;51.230;7.860;2023-03-15T05:05:35;17.10;;;11.43;;
19733;SDS011;10018;51.230;7.860;2023-03-15T05:08:01;18.10;;;10.83;;
19733;SDS011;10018;51.230;7.860;2023-03-15T05:10:26;24.03;;;11.40;;
19733;SDS011;10018;51.230;7.860;2023-03-15T05:12:53;17.97;;;10.27;;
19733;SDS011;10018;51.230;7.860;2023-03-15T05:15:22;18.23;;;9.93;;
19733;SDS011;10018;51.230;7.860;2023-03-15T05:17:48;15.37;;;9.83;;
19733;SDS011;10018;51.230;7.860;2023-03-15T05:20:13;16.47;;;9.03;;
19733;SDS011;10018;51.230;7.860;2023-03-15T05:22:40;16.00;;;9.30;;
19733;SDS011;10018;51.230;7.860;2023-03-15T05:25:07;15.13;;;9.30;;
19733;SDS011;10018;51.230;7.860;2023-03-15T05:27:34;16.03;;;9.47;;
19733;SDS011;10018;51.230;7.860;2023-03-15T05:30:00;15.47;;;8.77;;
19733;SDS011;10018;51.230;7.860;2023-03-15T05:32:29;15.50;;;9.07;;
19733;SDS011;10018;51.230;7.860;2023-03-15T05:34:58;13.07;;;8.13;;
19733;SDS011;10018;51.230;7.860;2023-03-15T05:37:25;11.67;;;7.40;;
19733;SDS011;10018;51.230;7.860;2023-03-15T05:39:51;12.90;;;7.73;;
19733;SDS011;10018;51.230;7.860;2023-03-15T05:42:16;13.30;;;7.80;;
19733;SDS011;10018;51.230;7.860;2023-03-15T05:44:50;14.20;;;7.60;;
19733;SDS011;10018;51.230;7.860;2023-03-15T05:50:06;12.43;;;7.13;;
19733;SDS011;10018;51.230;7.860;2023-03-15T05:52:35;12.50;;;6.80;;
19733;SDS011;10018;51.230;7.860;2023-03-15T05:55:00;10.07;;;6.43;;
19733;SDS011;10018;51.230;7.860;2023-03-15T05:57:33;10.37;;;6.10;;
19733;SDS011;10018;51.230;7.860;2023-03-15T05:59:59;11.97;;;6.90;;
19733;SDS011;10018;51.230;7.860;2023-03-15T06:02:27;10.30;;;6.63;;
19733;SDS011;10018;51.230;7.860;2023-03-15T06:04:52;9.60;;;6.33;;
19733;SDS011;10018;51.230;7.860;2023-03-15T06:07:18;11.67;;;6.77;;
19733;SDS011;10018;51.230;7.860;2023-03-15T06:09:45;9.57;;;6.00;;
19733;SDS011;10018;51.230;7.860;2023-03-15T06:12:10;12.30;;;7.37;;
19733;SDS011;10018;51.230;7.860;2023-03-15T06:14:36;10.70;;;6.37;;
19733;SDS011;10018;51.230;7.860;2023-03-15T06:17:01;15.67;;;8.37;;
19733;SDS011;10018;51.230;7.860;2023-03-15T06:19:27;13.50;;;8.30;;
19733;SDS011;10018;51.230;7.860;2023-03-15T06:21:53;13.33;;;7.73;;
19733;SDS011;10018;51.230;7.860;2023-03-15T06:24:18;12.80;;;7.20;;
19733;SDS011;10018;51.230;7.860;2023-03-15T06:26:44;10.37;;;6.50;;
19733;SDS011;10018;51.230;7.860;2023-03-15T06:29:10;10.87;;;7.03;;
19733;SDS011;10018;51.230;7.860;2023-03-15T06:31:35;10.40;;;6.20;;
19733;SDS011;10018;51.230;7.860;2023-03-15T06:34:01;15.30;;;8.63;;
19733;SDS011;10018;51.230;7.860;2023-03-15T06:36:26;28.93;;;16.40;;
19733;SDS011;10018;51.230;7.860;2023-03-15T06:38:52;25.50;;;14.47;;
19733;SDS011;10018;51.230;7.860;2023-03-15T06:41:18;17.63;;;9.80;;
19733;SDS011;10018;51.230;7.860;2023-03-15T06:43:45;12.93;;;7.17;;
19733;SDS011;10018;51.230;7.860;2023-03-15T06:46:11;9.37;;;5.77;;
19733;SDS011;10018;51.230;7.860;2023-03-15T06:48:36;9.33;;;5.67;;
19733;SDS011;10018;51.230;7.860;2023-03-15T06:51:05;13.23;;;6.70;;
19733;SDS011;10018;51.230;7.860;2023-03-15T06:53:33;15.67;;;8.40;;
19733;SDS011;10018;51.230;7.860;2023-03-15T06:55:59;15.23;;;8.33;;
19733;SDS011;10018;51.230;7.860;2023-03-15T06:58:27;13.20;;;6.93;;
19733;SDS011;10018;51.230;7.860;2023-03-15T07:00:52;12.37;;;7.50;;
19733;SDS011;10018;51.230;7.860;2023-03-15T07:03:18;13.67;;;8.37;;
19733;SDS011;10018;51.230;7.860;2023-03-15T07:05:45;13.53;;;8.17;;
19733;SDS011;10018;51.230;7.860;2023-03-15T07:08:13;12.33;;;7.33;;
19733;SDS011;10018;51.230;7.860;2023-03-15T07:10:39;14.57;;;7.93;;
19733;SDS011;10018;51.230;7.860;2023-03-15T07:13:04;14.33;;;7.17;;
19733;SDS011;10018;51.230;7.860;2023-03-15T07:15:30;15.33;;;7.43;;
19733;SDS011;10018;51.230;7.860;2023-03-15T07:17:56;15.73;;;9.30;;
19733;SDS011;10018;51.230;7.860;2023-03-15T07:20:22;16.70;;;8.20;;
19733;SDS011;10018;51.230;7.860;2023-03-15T07:22:49;15.70;;;7.97;;
19733;SDS011;10018;51.230;7.860;2023-03-15T07:25:15;13.47;;;8.07;;
19733;SDS011;10018;51.230;7.860;2023-03-15T07:27:47;13.43;;;7.87;;
19733;SDS011;10018;51.230;7.860;2023-03-15T07:30:17;18.13;;;9.07;;
19733;SDS011;10018;51.230;7.860;2023-03-15T07:32:44;17.67;;;8.80;;
19733;SDS011;10018;51.230;7.860;2023-03-15T07:35:10;15.20;;;8.93;;
19733;SDS011;10018;51.230;7.860;2023-03-15T07:37:36;16.60;;;8.03;;
19733;SDS011;10018;51.230;7.860;2023-03-15T07:40:02;12.90;;;7.17;;
19733;SDS011;10018;51.230;7.860;2023-03-15T07:42:30;12.83;;;7.30;;
19733;SDS011;10018;51.230;7.860;2023-03-15T07:44:56;13.97;;;7.10;;
19733;SDS011;10018;51.230;7.860;2023-03-15T07:47:24;13.60;;;7.10;;
19733;SDS011;10018;51.230;7.860;2023-03-15T07:49:49;12.87;;;7.10;;
19733;SDS011;10018;51.230;7.860;2023-03-15T07:52:15;13.80;;;7.60;;
19733;SDS011;10018;51.230;7.860;2023-03-15T07:54:41;14.70;;;7.73;;
19733;SDS011;10018;51.230;7.860;2023-03-15T07:57:07;17.17;;;9.57;;
19733;SDS011;10018;51.230;7.860;2023-03-15T07:59:32;37.33;;;17.70;;
19733;SDS011;10018;51.230;7.860;2023-03-15T08:01:58;41.43;;;18.93;;
19733;SDS011;10018;51.230;7.860;2023-03-15T08:04:23;41.67;;;18.70;;
19733;SDS011;10018;51.230;7.860;2023-03-15T08:06:49;15.90;;;8.97;;
19733;SDS011;10018;51.230;7.860;2023-03-15T08:09:14;15.73;;;9.07;;
19733;SDS011;10018;51.230;7.860;2023-03-15T08:11:40;16.20;;;8.47;;
19733;SDS011;10018;51.230;7.860;2023-03-15T08:14:05;15.73;;;8.63;;
19733;SDS011;10018;51.230;7.860;2023-03-15T08:16:31;17.37;;;8.30;;
19733;SDS011;10018;51.230;7.860;2023-03-15T08:18:56;15.43;;;8.93;;
19733;SDS011;10018;51.230;7.860;2023-03-15T08:21:22;34.03;;;18.57;;
19733;SDS011;10018;51.230;7.860;2023-03-15T08:23:47;19.43;;;10.20;;
19733;SDS011;10018;51.230;7.860;2023-03-15T08:26:13;13.80;;;8.00;;
19733;SDS011;10018;51.230;7.860;2023-03-15T08:28:39;15.63;;;8.47;;
19733;SDS011;10018;51.230;7.860;2023-03-15T08:31:05;16.80;;;7.40;;
19733;SDS011;10018;51.230;7.860;2023-03-15T08:33:31;16.80;;;8.20;;
19733;SDS011;10018;51.230;7.860;2023-03-15T08:35:57;14.00;;;7.30;;
19733;SDS011;10018;51.230;7.860;2023-03-15T08:38:23;16.27;;;8.30;;
19733;SDS011;10018;51.230;7.860;2023-03-15T08:40:54;20.93;;;8.70;;
19733;SDS011;10018;51.230;7.860;2023-03-15T08:43:22;15.60;;;7.67;;
19733;SDS011;10018;51.230;7.860;2023-03-15T08:45:48;17.00;;;8.47;;
19733;SDS011;10018;51.230;7.860;2023-03-15T08:48:17;16.03;;;9.10;;
19733;SDS011;10018;51.230;7.860;2023-03-15T08:50:43;24.97;;;11.90;;
19733;SDS011;10018;51.230;7.860;2023-03-15T08:53:09;21.43;;;9.60;;
19733;SDS011;10018;51.230;7.860;2023-03-15T08:55:35;18.07;;;10.10;;
19733;SDS011;10018;51.230;7.860;2023-03-15T08:58:01;16.63;;;9.50;;
19733;SDS011;10018;51.230;7.860;2023-03-15T09:00:27;18.03;;;9.13;;
19733;SDS011;10018;51.230;7.860;2023-03-15T09:02:53;14.97;;;8.03;;
19733;SDS011;10018;51.230;7.860;2023-03-15T09:05:19;17.10;;;9.17;;
19733;SDS011;10018;51.230;7.860;2023-03-15T09:07:48;16.83;;;9.60;;
19733;SDS011;10018;51.230;7.860;2023-03-15T09:10:17;18.03;;;9.63;;
19733;SDS011;10018;51.230;7.860;2023-03-15T09:12:44;17.57;;;7.90;;
19733;SDS011;10018;51.230;7.860;2023-03-15T09:15:11;14.43;;;7.60;;
19733;SDS011;10018;51.230;7.860;2023-03-15T09:17:40;13.37;;;7.80;;
19733;SDS011;10018;51.230;7.860;2023-03-15T09:20:06;12.43;;;7.67;;
19733;SDS011;10018;51.230;7.860;2023-03-15T09:22:38;19.53;;;8.90;;
19733;SDS011;10018;51.230;7.860;2023-03-15T09:25:07;13.83;;;8.30;;
19733;SDS011;10018;51.230;7.860;2023-03-15T09:27:33;15.47;;;8.07;;
19733;SDS011;10018;51.230;7.860;2023-03-15T09:29:59;14.07;;;7.13;;
19733;SDS011;10018;51.230;7.860;2023-03-15T09:32:25;17.90;;;8.60;;
19733;SDS011;10018;51.230;7.860;2023-03-15T09:34:51;13.13;;;8.00;;
19733;SDS011;10018;51.230;7.860;2023-03-15T09:37:17;15.07;;;8.13;;
19733;SDS011;10018;51.230;7.860;2023-03-15T09:39:45;18.60;;;8.77;;
19733;SDS011;10018;51.230;7.860;2023-03-15T09:44:58;13.87;;;7.57;;
19733;SDS011;10018;51.230;7.860;2023-03-15T09:47:53;18.57;;;8.03;;
19733;SDS011;10018;51.230;7.860;2023-03-15T09:53:18;15.07;;;8.07;;
19733;SDS011;10018;51.230;7.860;2023-03-15T09:55:45;12.77;;;7.00;;
19733;SDS011;10018;51.230;7.860;2023-03-15T09:58:20;14.20;;;7.60;;
19733;SDS011;10018;51.230;7.860;2023-03-15T10:00:55;13.90;;;7.50;;
19733;SDS011;10018;51.230;7.860;2023-03-15T10:03:31;14.90;;;6.73;;
19733;SDS011;10018;51.230;7.860;2023-03-15T10:06:01;14.90;;;7.30;;
19733;SDS011;10018;51.230;7.860;2023-03-15T10:08:31;17.07;;;7.80;;
19733;SDS011;10018;51.230;7.860;2023-03-15T10:16:42;14.43;;;6.63;;
19733;SDS011;10018;51.230;7.860;2023-03-15T10:19:35;13.33;;;7.07;;
19733;SDS011;10018;51.230;7.860;2023-03-15T10:22:10;14.03;;;6.70;;
19733;SDS011;10018;51.230;7.860;2023-03-15T10:29:58;13.53;;;7.60;;
19733;SDS011;10018;51.230;7.860;2023-03-15T10:32:26;14.13;;;7.20;;
19733;SDS011;10018;51.230;7.860;2023-03-15T10:34:56;15.50;;;6.60;;
19733;SDS011;10018;51.230;7.860;2023-03-15T10:37:23;14.57;;;5.40;;
19733;SDS011;10018;51.230;7.860;2023-03-15T10:39:50;12.87;;;5.10;;
19733;SDS011;10018;51.230;7.860;2023-03-15T10:42:26;10.17;;;4.97;;
19733;SDS011;10018;51.230;7.860;2023-03-15T10:44:57;10.20;;;4.57;;
19733;SDS011;10018;51.230;7.860;2023-03-15T10:47:39;12.90;;;5.00;;
19733;SDS011;10018;51.230;7.860;2023-03-15T10:50:09;15.10;;;6.07;;
19733;SDS011;10018;51.230;7.860;2023-03-15T10:52:55;12.97;;;5.70;;
19733;SDS011;10018;51.230;7.860;2023-03-15T10:55:29;13.43;;;6.07;;
19733;SDS011;10018;51.230;7.860;2023-03-15T10:58:12;13.37;;;6.60;;
19733;SDS011;10018;51.230;7.860;2023-03-15T11:00:51;13.77;;;6.07;;
19733;SDS011;10018;51.230;7.860;2023-03-15T11:03:31;15.13;;;6.63;;
19733;SDS011;10018;51.230;7.860;2023-03-15T11:05:57;14.90;;;8.40;;
19733;SDS011;10018;51.230;7.860;2023-03-15T11:08:36;14.90;;;6.70;;
19733;SDS011;10018;51.230;7.860;2023-03-15T11:11:07;11.33;;;5.57;;
19733;SDS011;10018;51.230;7.860;2023-03-15T11:13:34;13.63;;;6.20;;
19733;SDS011;10018;51.230;7.860;2023-03-15T11:16:05;13.93;;;5.60;;
19733;SDS011;10018;51.230;7.860;2023-03-15T11:18:56;17.53;;;5.23;;
19733;SDS011;10018;51.230;7.860;2023-03-15T11:21:35;10.27;;;5.10;;
19733;SDS011;10018;51.230;7.860;2023-03-15T11:24:04;11.47;;;4.97;;
19733;SDS011;10018;51.230;7.860;2023-03-15T11:26:32;11.07;;;4.93;;
19733;SDS011;10018;51.230;7.860;2023-03-15T11:29:04;10.40;;;5.10;;
19733;SDS011;10018;51.230;7.860;2023-03-15T11:31:38;10.57;;;4.90;;
19733;SDS011;10018;51.230;7.860;2023-03-15T11:34:08;8.53;;;4.47;;
19733;SDS011;10018;51.230;7.860;2023-03-15T11:36:41;13.77;;;4.83;;
19733;SDS011;10018;51.230;7.860;2023-03-15T11:39:13;10.40;;;5.27;;
19733;SDS011;10018;51.230;7.860;2023-03-15T11:50:15;5.83;;;3.30;;
19733;SDS011;10018;51.230;7.860;2023-03-15T11:52:46;10.90;;;4.50;;
19733;SDS011;10018;51.230;7.860;2023-03-15T11:55:22;11.90;;;4.07;;
19733;SDS011;10018;51.230;7.860;2023-03-15T11:57:50;11.83;;;4.07;;
19733;SDS011;10018;51.230;7.860;2023-03-15T12:02:57;11.10;;;4.00;;
19733;SDS011;10018;51.230;7.860;2023-03-15T12:05:48;10.13;;;4.00;;
19733;SDS011;10018;51.230;7.860;2023-03-15T12:08:16;11.07;;;3.50;;
19733;SDS011;10018;51.230;7.860;2023-03-15T12:10:49;12.07;;;4.10;;
19733;SDS011;10018;51.230;7.860;2023-03-15T12:13:25;8.70;;;3.97;;
19733;SDS011;10018;51.230;7.860;2023-03-15T12:15:52;13.83;;;4.27;;
19733;SDS011;10018;51.230;7.860;2023-03-15T12:18:20;11.70;;;4.53;;
19733;SDS011;10018;51.230;7.860;2023-03-15T12:20:51;10.97;;;4.70;;
19733;SDS011;10018;51.230;7.860;2023-03-15T12:23:55;9.90;;;4.47;;
19733;SDS011;10018;51.230;7.860;2023-03-15T12:26:30;11.03;;;4.50;;
19733;SDS011;10018;51.230;7.860;2023-03-15T12:29:02;10.13;;;4.33;;
19733;SDS011;10018;51.230;7.860;2023-03-15T12:31:49;10.13;;;4.00;;
19733;SDS011;10018;51.230;7.860;2023-03-15T12:34:26;8.60;;;4.00;;
19733;SDS011;10018;51.230;7.860;2023-03-15T12:37:07;24.33;;;12.37;;
19733;SDS011;10018;51.230;7.860;2023-03-15T12:58:43;10.37;;;3.43;;
19733;SDS011;10018;51.230;7.860;2023-03-15T13:01:13;9.73;;;2.90;;
19733;SDS011;10018;51.230;7.860;2023-03-15T13:03:40;10.73;;;3.53;;
19733;SDS011;10018;51.230;7.860;2023-03-15T13:08:56;9.80;;;3.30;;
19733;SDS011;10018;51.230;7.860;2023-03-15T13:14:43;11.77;;;4.90;;
19733;SDS011;10018;51.230;7.860;2023-03-15T13:17:35;12.17;;;3.30;;
19733;SDS011;10018;51.230;7.860;2023-03-15T13:23:14;10.67;;;3.23;;
19733;SDS011;10018;51.230;7.860;2023-03-15T13:28:23;8.30;;;3.23;;
19733;SDS011;10018;51.230;7.860;2023-03-15T13:30:51;8.50;;;2.87;;
19733;SDS011;10018;51.230;7.860;2023-03-15T13:33:26;10.87;;;2.73;;
19733;SDS011;10018;51.230;7.860;2023-03-15T13:35:57;8.97;;;3.13;;
19733;SDS011;10018;51.230;7.860;2023-03-15T13:44:18;6.67;;;2.10;;
19733;SDS011;10018;51.230;7.860;2023-03-15T13:46:47;7.03;;;2.17;;
19733;SDS011;10018;51.230;7.860;2023-03-15T13:49:13;7.43;;;2.20;;
19733;SDS011;10018;51.230;7.860;2023-03-15T13:51:40;8.17;;;2.50;;
19733;SDS011;10018;51.230;7.860;2023-03-15T13:59:22;6.07;;;1.90;;
19733;SDS011;10018;51.230;7.860;2023-03-15T14:01:54;6.17;;;2.40;;
19733;SDS011;10018;51.230;7.860;2023-03-15T14:04:21;6.07;;;2.43;;
19733;SDS011;10018;51.230;7.860;2023-03-15T14:06:48;5.47;;;2.07;;
19733;SDS011;10018;51.230;7.860;2023-03-15T14:09:19;5.73;;;2.00;;
19733;SDS011;10018;51.230;7.860;2023-03-15T14:12:03;4.97;;;1.77;;
19733;SDS011;10018;51.230;7.860;2023-03-15T14:14:30;4.20;;;1.77;;
19733;SDS011;10018;51.230;7.860;2023-03-15T14:17:05;6.43;;;1.93;;
19733;SDS011;10018;51.230;7.860;2023-03-15T14:19:33;4.23;;;1.80;;
19733;SDS011;10018;51.230;7.860;2023-03-15T14:22:03;4.60;;;1.63;;
19733;SDS011;10018;51.230;7.860;2023-03-15T14:24:38;7.03;;;1.73;;
19733;SDS011;10018;51.230;7.860;2023-03-15T14:27:06;5.07;;;1.90;;
19733;SDS011;10018;51.230;7.860;2023-03-15T14:29:37;5.33;;;2.30;;
19733;SDS011;10018;51.230;7.860;2023-03-15T14:32:21;6.37;;;2.00;;
19733;SDS011;10018;51.230;7.860;2023-03-15T14:34:56;5.83;;;2.23;;
19733;SDS011;10018;51.230;7.860;2023-03-15T14:37:35;5.17;;;1.80;;
19733;SDS011;10018;51.230;7.860;2023-03-15T14:40:11;7.30;;;2.47;;
19733;SDS011;10018;51.230;7.860;2023-03-15T14:42:39;6.70;;;2.10;;
19733;SDS011;10018;51.230;7.860;2023-03-15T14:45:05;6.83;;;2.50;;
19733;SDS011;10018;51.230;7.860;2023-03-15T14:47:31;6.87;;;2.63;;
19733;SDS011;10018;51.230;7.860;2023-03-15T14:50:15;5.40;;;2.37;;
19733;SDS011;10018;51.230;7.860;2023-03-15T14:52:44;5.10;;;1.90;;
19733;SDS011;10018;51.230;7.860;2023-03-15T14:55:12;4.03;;;1.70;;
19733;SDS011;10018;51.230;7.860;2023-03-15T14:57:40;5.47;;;1.77;;
19733;SDS011;10018;51.230;7.860;2023-03-15T15:00:09;6.33;;;2.63;;
19733;SDS011;10018;51.230;7.860;2023-03-15T15:02:42;5.03;;;2.07;;
19733;SDS011;10018;51.230;7.860;2023-03-15T15:05:30;6.73;;;2.23;;
19733;SDS011;10018;51.230;7.860;2023-03-15T15:08:08;6.30;;;2.50;;
19733;SDS011;10018;51.230;7.860;2023-03-15T15:10:38;7.00;;;2.97;;
19733;SDS011;10018;51.230;7.860;2023-03-15T15:13:05;7.00;;;2.80;;
19733;SDS011;10018;51.230;7.860;2023-03-15T15:15:31;7.33;;;2.70;;
19733;SDS011;10018;51.230;7.860;2023-03-15T15:17:57;6.53;;;2.50;;
19733;SDS011;10018;51.230;7.860;2023-03-15T15:20:23;9.63;;;3.27;;
19733;SDS011;10018;51.230;7.860;2023-03-15T15:22:49;5.83;;;2.30;;
19733;SDS011;10018;51.230;7.860;2023-03-15T15:25:19;6.17;;;2.20;;
19733;SDS011;10018;51.230;7.860;2023-03-15T15:27:46;12.77;;;4.27;;
19733;SDS011;10018;51.230;7.860;2023-03-15T15:30:16;5.43;;;2.40;;
19733;SDS011;10018;51.230;7.860;2023-03-15T15:32:45;7.73;;;2.17;;
19733;SDS011;10018;51.230;7.860;2023-03-15T15:35:15;7.80;;;2.27;;
19733;SDS011;10018;51.230;7.860;2023-03-15T15:37:43;6.67;;;2.27;;
19733;SDS011;10018;51.230;7.860;2023-03-15T15:40:33;4.67;;;2.00;;
19733;SDS011;10018;51.230;7.860;2023-03-15T15:42:58;5.37;;;2.00;;
19733;SDS011;10018;51.230;7.860;2023-03-15T15:45:27;4.93;;;1.77;;
19733;SDS011;10018;51.230;7.860;2023-03-15T15:47:53;5.87;;;2.07;;
19733;SDS011;10018;51.230;7.860;2023-03-15T15:50:19;6.77;;;2.43;;
19733;SDS011;10018;51.230;7.860;2023-03-15T15:52:48;6.90;;;2.70;;
19733;SDS011;10018;51.230;7.860;2023-03-15T15:55:17;6.97;;;2.80;;
19733;SDS011;10018;51.230;7.860;2023-03-15T15:57:46;6.17;;;2.50;;
19733;SDS011;10018;51.230;7.860;2023-03-15T16:00:15;9.53;;;4.03;;
19733;SDS011;10018;51.230;7.860;2023-03-15T16:02:43;4.97;;;2.57;;
19733;SDS011;10018;51.230;7.860;2023-03-15T16:05:12;7.27;;;2.70;;
19733;SDS011;10018;51.230;7.860;2023-03-15T16:07:38;7.43;;;2.40;;
19733;SDS011;10018;51.230;7.860;2023-03-15T16:10:05;8.43;;;2.70;;
19733;SDS011;10018;51.230;7.860;2023-03-15T16:12:35;4.53;;;1.97;;